Time;durP1;ratioP1;P1;durP2;ratioP2;P2;SDS_P1;SDS_P2;PMS_P1;PMS_P2;Temp;Humidity;BMP_temperature;BMP_pressure;BME280_temperature;BME280_humidity;BME280_pressure;Samples;Min_cycle;Max_cycle;Signal;HPM_P1;HPM_P2
2022/07/19 00:01:43;;;;;;;3.63;1.88;;;;;;;;;;5134590;27;20444;-72
2022/07/19 00:04:08;;;;;;;6.78;1.70;;;;;;;;;;5135322;27;20448;-72
2022/07/19 00:06:34;;;;;;;3.35;1.83;;;;;;;;;;5135155;27;20498;-72
2022/07/19 00:08:59;;;;;;;3.65;2.00;;;;;;;;;;5135621;27;20031;-72
2022/07/19 00:11:25;;;;;;;5.55;2.20;;;;;;;;;;5135351;27;20031;-72
2022/07/19 00:13:51;;;;;;;3.90;2.20;;;;;;;;;;5116882;27;20616;-72
2022/07/19 00:16:16;;;;;;;2.72;1.88;;;;;;;;;;5133979;27;20236;-72
2022/07/19 00:18:42;;;;;;;5.00;1.95;;;;;;;;;;5116994;27;20039;-72
2022/07/19 00:21:07;;;;;;;2.65;1.67;;;;;;;;;;5134033;27;20038;-72
2022/07/19 00:23:33;;;;;;;2.25;1.65;;;;;;;;;;5134167;27;20034;-72
2022/07/19 00:25:58;;;;;;;5.18;3.22;;;;;;;;;;5116368;27;20035;-72
2022/07/19 00:28:24;;;;;;;2.55;1.70;;;;;;;;;;5116573;27;20042;-72
2022/07/19 00:30:50;;;;;;;4.80;1.90;;;;;;;;;;5134715;27;20077;-72
2022/07/19 00:33:15;;;;;;;3.47;1.85;;;;;;;;;;5135159;27;20484;-72
2022/07/19 00:35:41;;;;;;;3.15;1.60;;;;;;;;;;5134258;27;20047;-72
2022/07/19 00:38:08;;;;;;;3.58;1.70;;;;;;;;;;5134757;27;20042;-72
2022/07/19 00:40:36;;;;;;;3.53;1.65;;;;;;;;;;5134961;27;20051;-72
2022/07/19 00:43:02;;;;;;;4.57;1.95;;;;;;;;;;5116612;27;20031;-72
2022/07/19 00:45:28;;;;;;;10.68;2.45;;;;;;;;;;5134598;27;20118;-72
2022/07/19 00:47:53;;;;;;;5.63;1.90;;;;;;;;;;5135336;27;20160;-72
2022/07/19 00:50:19;;;;;;;5.20;1.85;;;;;;;;;;5133416;27;20088;-72
2022/07/19 00:53:00;;;;;;;9.05;2.28;;;;;;;;;;5133269;27;20042;-72
2022/07/19 00:55:28;;;;;;;3.72;1.52;;;;;;;;;;5134385;27;20500;-72
2022/07/19 00:57:55;;;;;;;2.83;1.85;;;;;;;;;;5133272;27;20476;-72
2022/07/19 01:00:20;;;;;;;5.65;2.00;;;;;;;;;;5134596;27;20457;-72
2022/07/19 01:02:47;;;;;;;4.93;2.47;;;;;;;;;;5133687;27;20031;-72
2022/07/19 01:05:12;;;;;;;3.35;2.05;;;;;;;;;;5115774;27;20038;-72
2022/07/19 01:07:40;;;;;;;3.22;2.05;;;;;;;;;;5133979;27;20404;-72
2022/07/19 01:10:07;;;;;;;5.13;1.63;;;;;;;;;;5115925;28;20042;-72
2022/07/19 01:12:33;;;;;;;2.63;1.70;;;;;;;;;;5134609;27;20487;-72
2022/07/19 01:14:59;;;;;;;5.32;1.90;;;;;;;;;;5115985;27;20042;-72
2022/07/19 01:17:25;;;;;;;2.67;1.92;;;;;;;;;;5133558;27;20027;-72
2022/07/19 01:19:51;;;;;;;4.97;1.60;;;;;;;;;;5132991;27;20031;-72
2022/07/19 01:22:16;;;;;;;6.63;2.22;;;;;;;;;;5133756;27;20500;-72
2022/07/19 01:24:41;;;;;;;4.40;1.80;;;;;;;;;;5134168;27;20488;-72
2022/07/19 01:27:07;;;;;;;7.80;1.77;;;;;;;;;;5132791;28;20168;-72
2022/07/19 01:29:36;;;;;;;6.85;1.95;;;;;;;;;;5132953;28;20084;-72
2022/07/19 01:32:02;;;;;;;2.58;1.73;;;;;;;;;;5115777;28;20031;-72
2022/07/19 01:34:28;;;;;;;2.88;1.63;;;;;;;;;;5133390;27;20103;-72
2022/07/19 01:36:53;;;;;;;3.60;1.83;;;;;;;;;;5132175;27;20475;-71
2022/07/19 01:39:18;;;;;;;3.60;1.80;;;;;;;;;;5133050;28;20042;-72
2022/07/19 01:41:44;;;;;;;3.67;1.90;;;;;;;;;;5133634;27;20043;-72
2022/07/19 01:44:09;;;;;;;5.53;1.90;;;;;;;;;;5115115;27;20042;-72
2022/07/19 01:46:35;;;;;;;7.68;3.97;;;;;;;;;;5133436;27;20494;-72
2022/07/19 01:49:00;;;;;;;4.70;1.90;;;;;;;;;;5136332;27;20027;-72
2022/07/19 01:51:26;;;;;;;3.65;2.10;;;;;;;;;;5137754;27;20445;-71
2022/07/19 01:53:51;;;;;;;2.58;1.80;;;;;;;;;;5119104;27;20113;-72
2022/07/19 01:56:16;;;;;;;4.20;2.00;;;;;;;;;;5136709;27;20103;-72
2022/07/19 01:58:42;;;;;;;4.40;1.95;;;;;;;;;;5137907;27;20170;-72
2022/07/19 02:01:07;;;;;;;3.92;1.88;;;;;;;;;;5119537;27;20045;-72
2022/07/19 02:03:33;;;;;;;2.90;2.03;;;;;;;;;;5137928;27;20118;-72
2022/07/19 02:05:58;;;;;;;4.35;2.10;;;;;;;;;;5137514;27;20031;-72
2022/07/19 02:08:24;;;;;;;2.65;1.52;;;;;;;;;;5110017;28;20081;-72
2022/07/19 02:10:51;;;;;;;4.28;2.03;;;;;;;;;;5117238;28;20050;-72
2022/07/19 02:13:16;;;;;;;1.92;1.60;;;;;;;;;;5099115;28;20035;-76
2022/07/19 02:15:42;;;;;;;3.15;1.60;;;;;;;;;;5099033;28;20525;-73
2022/07/19 02:18:07;;;;;;;5.53;1.42;;;;;;;;;;5129154;27;20035;-72
2022/07/19 02:20:33;;;;;;;4.28;1.70;;;;;;;;;;5136028;27;20519;-73
2022/07/19 02:22:58;;;;;;;4.32;1.90;;;;;;;;;;5136107;27;20049;-73
2022/07/19 02:25:24;;;;;;;4.28;1.73;;;;;;;;;;5137533;27;20067;-73
2022/07/19 02:27:53;;;;;;;3.28;2.15;;;;;;;;;;5136066;27;20110;-73
2022/07/19 02:30:19;;;;;;;3.42;1.92;;;;;;;;;;5137233;27;20062;-73
2022/07/19 02:32:44;;;;;;;5.60;2.08;;;;;;;;;;5137208;27;20095;-73
2022/07/19 02:35:11;;;;;;;6.50;1.88;;;;;;;;;;5136076;27;20448;-73
2022/07/19 02:37:38;;;;;;;4.28;1.80;;;;;;;;;;5118208;27;20436;-75
2022/07/19 02:40:04;;;;;;;7.88;2.17;;;;;;;;;;5137045;27;20489;-74
2022/07/19 02:42:29;;;;;;;3.50;1.85;;;;;;;;;;5136582;27;20033;-73
2022/07/19 02:44:55;;;;;;;5.50;2.00;;;;;;;;;;5118753;27;20118;-73
2022/07/19 02:47:20;;;;;;;3.60;1.83;;;;;;;;;;5135849;27;20035;-74
2022/07/19 02:49:46;;;;;;;4.57;2.00;;;;;;;;;;5136709;27;20034;-74
2022/07/19 02:52:11;;;;;;;5.65;3.72;;;;;;;;;;5136861;27;20045;-73
2022/07/19 02:54:37;;;;;;;5.45;2.05;;;;;;;;;;5135872;27;20043;-75
2022/07/19 02:57:03;;;;;;;5.88;1.85;;;;;;;;;;5135296;27;20057;-73
2022/07/19 02:59:28;;;;;;;3.72;2.10;;;;;;;;;;5136500;27;20410;-75
2022/07/19 03:01:54;;;;;;;3.33;1.95;;;;;;;;;;5118676;27;20046;-74
2022/07/19 03:04:19;;;;;;;5.72;1.73;;;;;;;;;;5136768;27;20034;-74
2022/07/19 03:06:45;;;;;;;4.05;2.10;;;;;;;;;;5136531;27;20031;-74
2022/07/19 03:09:11;;;;;;;3.90;1.73;;;;;;;;;;5136791;27;20031;-74
2022/07/19 03:11:37;;;;;;;5.57;1.73;;;;;;;;;;5136889;27;20063;-74
2022/07/19 03:14:03;;;;;;;4.05;2.20;;;;;;;;;;5135525;27;20035;-74
2022/07/19 03:16:28;;;;;;;6.03;1.73;;;;;;;;;;5118220;27;20537;-74
2022/07/19 03:18:53;;;;;;;3.45;1.80;;;;;;;;;;5117373;27;20404;-74
2022/07/19 03:21:19;;;;;;;3.92;1.90;;;;;;;;;;5136654;27;20035;-74
2022/07/19 03:23:44;;;;;;;5.95;2.35;;;;;;;;;;5136817;27;20035;-74
2022/07/19 03:26:10;;;;;;;2.75;1.98;;;;;;;;;;5135238;27;20027;-74
2022/07/19 03:28:35;;;;;;;2.50;2.10;;;;;;;;;;5136639;27;20050;-74
2022/07/19 03:31:01;;;;;;;3.97;2.67;;;;;;;;;;5135329;27;20031;-74
2022/07/19 03:33:27;;;;;;;3.85;1.95;;;;;;;;;;5135860;27;20043;-74
2022/07/19 03:35:52;;;;;;;2.78;1.83;;;;;;;;;;5117777;27;20489;-74
2022/07/19 03:38:18;;;;;;;8.40;2.72;;;;;;;;;;5117938;27;20035;-74
2022/07/19 03:40:49;;;;;;;7.60;2.10;;;;;;;;;;5117740;27;20362;-74
2022/07/19 03:43:16;;;;;;;5.47;1.88;;;;;;;;;;5134434;27;20039;-74
2022/07/19 03:45:42;;;;;;;3.28;2.10;;;;;;;;;;5135750;27;20038;-74
2022/07/19 03:48:08;;;;;;;7.88;2.58;;;;;;;;;;5134451;27;20487;-74
2022/07/19 03:50:33;;;;;;;6.95;2.22;;;;;;;;;;5135913;27;20038;-74
2022/07/19 03:52:59;;;;;;;4.38;2.25;;;;;;;;;;5136272;27;20088;-74
2022/07/19 03:55:24;;;;;;;4.30;1.83;;;;;;;;;;5134481;27;20034;-74
2022/07/19 03:57:50;;;;;;;3.83;1.80;;;;;;;;;;5136054;27;20049;-74
2022/07/19 04:00:15;;;;;;;3.75;1.80;;;;;;;;;;5134611;27;20058;-74
2022/07/19 04:02:42;;;;;;;2.75;1.80;;;;;;;;;;5135649;27;20035;-74
2022/07/19 04:05:07;;;;;;;5.43;1.88;;;;;;;;;;5116922;27;20389;-74
2022/07/19 04:07:33;;;;;;;6.00;2.03;;;;;;;;;;5135697;27;20115;-74
2022/07/19 04:09:59;;;;;;;3.10;1.85;;;;;;;;;;5134406;27;20035;-74
2022/07/19 04:12:24;;;;;;;4.07;1.92;;;;;;;;;;5117214;27;20442;-74
2022/07/19 04:14:50;;;;;;;5.32;1.90;;;;;;;;;;5133940;27;20035;-74
2022/07/19 04:17:16;;;;;;;8.15;3.05;;;;;;;;;;5135224;27;20057;-74
2022/07/19 04:19:41;;;;;;;2.38;1.98;;;;;;;;;;5135127;27;20073;-74
2022/07/19 04:22:07;;;;;;;7.38;2.08;;;;;;;;;;5134221;27;20035;-74
2022/07/19 04:24:32;;;;;;;5.57;2.10;;;;;;;;;;5133966;27;20449;-74
2022/07/19 04:26:57;;;;;;;5.63;2.03;;;;;;;;;;5133142;27;20023;-74
2022/07/19 04:29:23;;;;;;;9.38;2.00;;;;;;;;;;5135252;27;20134;-74
2022/07/19 04:31:48;;;;;;;11.25;2.10;;;;;;;;;;5116686;27;20034;-75
2022/07/19 04:34:13;;;;;;;6.05;2.10;;;;;;;;;;5134841;27;20472;-76
2022/07/19 04:36:39;;;;;;;3.78;2.20;;;;;;;;;;5132617;27;20035;-75
2022/07/19 04:39:04;;;;;;;1.98;1.77;;;;;;;;;;5134868;27;20052;-75
2022/07/19 04:41:30;;;;;;;9.23;2.20;;;;;;;;;;5133565;27;20112;-77
2022/07/19 04:43:55;;;;;;;5.95;1.90;;;;;;;;;;5133574;27;20034;-75
2022/07/19 04:46:20;;;;;;;4.40;2.10;;;;;;;;;;5134810;27;20035;-77
2022/07/19 04:48:46;;;;;;;4.78;1.70;;;;;;;;;;5133405;27;20031;-74
2022/07/19 04:51:11;;;;;;;5.85;2.00;;;;;;;;;;5135054;27;20404;-74
2022/07/19 04:53:37;;;;;;;4.15;2.40;;;;;;;;;;5134568;27;20070;-75
2022/07/19 04:56:02;;;;;;;3.75;2.33;;;;;;;;;;5116167;27;20026;-75
2022/07/19 04:58:28;;;;;;;4.05;2.03;;;;;;;;;;5134892;27;20035;-75
2022/07/19 05:00:53;;;;;;;8.82;3.08;;;;;;;;;;5133250;27;20042;-75
2022/07/19 05:03:19;;;;;;;4.03;2.35;;;;;;;;;;5134357;27;20034;-75
2022/07/19 05:05:44;;;;;;;6.43;2.90;;;;;;;;;;5132187;27;20027;-76
2022/07/19 05:08:10;;;;;;;6.63;2.38;;;;;;;;;;5115575;27;20035;-76
2022/07/19 05:10:36;;;;;;;9.85;2.40;;;;;;;;;;5114478;27;20039;-75
2022/07/19 05:13:01;;;;;;;7.72;2.38;;;;;;;;;;5133834;27;20042;-75
2022/07/19 05:15:27;;;;;;;6.05;2.90;;;;;;;;;;5113857;27;20050;-76
2022/07/19 05:17:52;;;;;;;6.22;3.00;;;;;;;;;;5132970;27;20401;-75
2022/07/19 05:20:17;;;;;;;9.35;3.15;;;;;;;;;;5134126;27;20030;-75
2022/07/19 05:22:44;;;;;;;9.25;2.80;;;;;;;;;;5132940;27;20031;-75
2022/07/19 05:25:10;;;;;;;8.88;2.88;;;;;;;;;;5132656;27;20035;-75
2022/07/19 05:27:36;;;;;;;7.05;3.15;;;;;;;;;;5115983;28;20031;-76
2022/07/19 05:30:03;;;;;;;7.63;3.25;;;;;;;;;;5133016;27;20369;-75
2022/07/19 05:32:29;;;;;;;4.30;3.08;;;;;;;;;;5115694;28;20150;-76
2022/07/19 05:34:54;;;;;;;6.93;2.70;;;;;;;;;;5134067;27;20070;-76
2022/07/19 05:37:20;;;;;;;6.28;3.28;;;;;;;;;;5134137;27;20035;-75
2022/07/19 05:39:45;;;;;;;6.28;3.17;;;;;;;;;;5132856;27;20130;-76
2022/07/19 05:42:10;;;;;;;8.43;2.92;;;;;;;;;;5134263;27;20089;-76
2022/07/19 05:44:36;;;;;;;6.03;3.20;;;;;;;;;;5134037;27;20038;-75
2022/07/19 05:47:01;;;;;;;5.88;3.42;;;;;;;;;;5132780;28;20031;-75
2022/07/19 05:49:27;;;;;;;5.50;3.10;;;;;;;;;;5133291;27;20031;-76
2022/07/19 05:51:54;;;;;;;5.03;3.20;;;;;;;;;;5115767;28;20042;-76
2022/07/19 05:54:19;;;;;;;5.55;2.85;;;;;;;;;;5133984;27;20031;-76
2022/07/19 05:56:45;;;;;;;8.65;3.40;;;;;;;;;;5115499;28;20027;-76
2022/07/19 05:59:10;;;;;;;9.45;2.97;;;;;;;;;;5098495;28;20031;-75
2022/07/19 06:01:36;;;;;;;6.47;3.80;;;;;;;;;;5132558;27;20080;-76
2022/07/19 06:04:02;;;;;;;8.25;3.50;;;;;;;;;;5132398;27;20031;-76
2022/07/19 06:06:29;;;;;;;4.78;3.00;;;;;;;;;;5115357;28;20380;-76
2022/07/19 06:08:56;;;;;;;13.20;3.90;;;;;;;;;;5133896;28;20084;-76
2022/07/19 06:11:22;;;;;;;5.78;3.80;;;;;;;;;;5115203;28;20027;-76
2022/07/19 06:13:48;;;;;;;9.73;3.20;;;;;;;;;;5132495;27;20525;-76
2022/07/19 06:16:14;;;;;;;10.27;3.47;;;;;;;;;;5115110;28;20036;-76
2022/07/19 06:18:40;;;;;;;8.23;3.40;;;;;;;;;;5133692;27;20023;-76
2022/07/19 06:21:10;;;;;;;4.28;3.30;;;;;;;;;;5132559;27;20027;-76
2022/07/19 06:23:37;;;;;;;5.75;3.45;;;;;;;;;;5133885;27;20427;-76
2022/07/19 06:26:03;;;;;;;7.65;3.42;;;;;;;;;;5115067;28;20055;-76
2022/07/19 06:28:28;;;;;;;5.95;3.40;;;;;;;;;;5133530;27;20063;-76
2022/07/19 06:30:54;;;;;;;6.80;2.95;;;;;;;;;;5133819;27;20153;-76
2022/07/19 06:33:20;;;;;;;6.22;3.20;;;;;;;;;;5132835;27;20035;-76
2022/07/19 06:35:45;;;;;;;6.38;3.00;;;;;;;;;;5136981;27;20136;-76
2022/07/19 06:38:11;;;;;;;3.67;2.28;;;;;;;;;;5136231;27;20586;-76
2022/07/19 06:40:36;;;;;;;9.32;3.03;;;;;;;;;;5137294;27;20497;-76
2022/07/19 06:43:02;;;;;;;3.83;2.55;;;;;;;;;;5137217;27;20377;-76
2022/07/19 06:45:27;;;;;;;9.50;2.28;;;;;;;;;;5135786;27;20042;-76
2022/07/19 06:47:52;;;;;;;4.50;2.35;;;;;;;;;;5137345;27;20372;-76
2022/07/19 06:50:18;;;;;;;12.65;2.72;;;;;;;;;;5135623;27;20027;-76
2022/07/19 06:52:44;;;;;;;4.82;2.55;;;;;;;;;;5137129;27;20031;-77
2022/07/19 06:55:10;;;;;;;4.72;2.50;;;;;;;;;;5136823;27;20064;-77
2022/07/19 06:57:35;;;;;;;9.43;2.60;;;;;;;;;;5118310;27;20027;-77
2022/07/19 07:00:01;;;;;;;4.45;2.38;;;;;;;;;;5118817;27;20081;-77
2022/07/19 07:02:26;;;;;;;5.15;2.70;;;;;;;;;;5135270;27;20039;-77
2022/07/19 07:04:52;;;;;;;4.82;2.65;;;;;;;;;;5135480;27;20039;-77
2022/07/19 07:07:17;;;;;;;3.92;1.98;;;;;;;;;;5136835;27;20083;-77
2022/07/19 07:09:42;;;;;;;3.28;2.17;;;;;;;;;;5136828;27;20035;-77
2022/07/19 07:12:08;;;;;;;2.90;2.25;;;;;;;;;;5135563;27;20028;-77
2022/07/19 07:14:34;;;;;;;4.88;2.20;;;;;;;;;;5136773;27;20114;-77
2022/07/19 07:17:00;;;;;;;6.10;2.33;;;;;;;;;;5134853;27;20034;-77
2022/07/19 07:19:25;;;;;;;4.50;1.75;;;;;;;;;;5135220;27;20052;-77
2022/07/19 07:21:50;;;;;;;5.78;2.05;;;;;;;;;;5118213;27;20047;-77
2022/07/19 07:24:16;;;;;;;3.78;2.15;;;;;;;;;;5136924;27;20031;-77
2022/07/19 07:26:41;;;;;;;4.70;2.13;;;;;;;;;;5118345;27;20176;-77
2022/07/19 07:29:06;;;;;;;6.03;1.83;;;;;;;;;;5137217;27;20046;-77
2022/07/19 07:31:32;;;;;;;6.65;2.03;;;;;;;;;;5137075;27;20039;-77
2022/07/19 07:33:57;;;;;;;11.13;2.17;;;;;;;;;;5137124;27;20040;-77
2022/07/19 07:36:23;;;;;;;4.00;2.13;;;;;;;;;;5118504;27;20042;-77
2022/07/19 07:38:50;;;;;;;9.10;2.20;;;;;;;;;;5135952;27;20035;-78
2022/07/19 07:41:15;;;;;;;6.80;2.25;;;;;;;;;;5135873;27;20063;-77
2022/07/19 07:43:40;;;;;;;8.68;2.05;;;;;;;;;;5118913;27;20496;-77
2022/07/19 07:46:06;;;;;;;3.97;1.90;;;;;;;;;;5136167;27;20031;-77
2022/07/19 07:48:33;;;;;;;3.33;1.98;;;;;;;;;;5137357;27;20039;-77
2022/07/19 07:50:58;;;;;;;6.05;1.75;;;;;;;;;;5119192;27;20491;-78
2022/07/19 07:53:24;;;;;;;3.72;2.03;;;;;;;;;;5135980;27;20026;-79
2022/07/19 07:55:49;;;;;;;5.93;1.70;;;;;;;;;;5136099;27;20027;-78
2022/07/19 07:58:15;;;;;;;3.47;1.98;;;;;;;;;;5136528;27;20110;-77
2022/07/19 08:00:41;;;;;;;8.63;1.95;;;;;;;;;;5135082;27;20122;-77
2022/07/19 08:03:07;;;;;;;3.95;2.30;;;;;;;;;;5135118;27;20114;-78
2022/07/19 08:05:32;;;;;;;5.97;2.15;;;;;;;;;;5148905;27;20027;-78
2022/07/19 08:07:59;;;;;;;2.60;1.83;;;;;;;;;;5156695;27;20110;-77
2022/07/19 08:10:26;;;;;;;7.47;1.73;;;;;;;;;;5141173;27;20041;-77
2022/07/19 08:12:52;;;;;;;6.90;1.88;;;;;;;;;;5156069;27;20053;-76
2022/07/19 08:15:19;;;;;;;3.70;1.70;;;;;;;;;;5155039;27;20492;-77
2022/07/19 08:17:44;;;;;;;3.97;1.90;;;;;;;;;;5155961;27;20468;-76
2022/07/19 08:20:10;;;;;;;3.15;1.88;;;;;;;;;;5137894;27;20027;-78
2022/07/19 08:22:36;;;;;;;6.10;2.05;;;;;;;;;;5155632;27;20031;-77
2022/07/19 08:25:02;;;;;;;5.47;2.13;;;;;;;;;;5137407;27;20026;-77
2022/07/19 08:27:27;;;;;;;3.58;1.98;;;;;;;;;;5138011;27;20065;-77
2022/07/19 08:29:53;;;;;;;3.90;1.83;;;;;;;;;;5156167;27;20063;-78
2022/07/19 08:32:18;;;;;;;3.38;2.00;;;;;;;;;;5157574;27;20038;-79
2022/07/19 08:34:43;;;;;;;6.72;1.98;;;;;;;;;;5134105;27;20023;-78
2022/07/19 08:37:09;;;;;;;9.00;2.85;;;;;;;;;;5134794;27;20686;-77
2022/07/19 08:39:34;;;;;;;6.07;1.95;;;;;;;;;;5136135;27;20027;-78
2022/07/19 08:42:00;;;;;;;4.35;1.90;;;;;;;;;;5118913;27;20031;-78
2022/07/19 08:44:27;;;;;;;6.82;2.30;;;;;;;;;;5118995;27;20035;-78
2022/07/19 08:46:53;;;;;;;5.55;2.00;;;;;;;;;;5136407;27;20031;-79
2022/07/19 08:49:19;;;;;;;6.00;1.90;;;;;;;;;;5138599;27;20038;-78
2022/07/19 08:51:47;;;;;;;5.00;1.77;;;;;;;;;;5135307;27;20110;-78
2022/07/19 08:54:13;;;;;;;5.25;1.80;;;;;;;;;;5135141;27;20031;-78
2022/07/19 08:59:23;;;;;;;6.07;2.05;;;;;;;;;;5136341;27;20381;-78
2022/07/19 09:01:48;;;;;;;9.32;1.75;;;;;;;;;;5116271;27;20031;-75
2022/07/19 09:04:19;;;;;;;9.05;1.67;;;;;;;;;;5130526;27;20169;-76
2022/07/19 09:06:46;;;;;;;4.32;1.77;;;;;;;;;;5115375;27;20033;-75
2022/07/19 09:09:15;;;;;;;8.18;2.15;;;;;;;;;;5132974;27;20039;-75
2022/07/19 09:11:49;;;;;;;2.45;1.65;;;;;;;;;;5133537;27;20118;-76
2022/07/19 09:14:17;;;;;;;6.28;1.88;;;;;;;;;;5115593;27;20035;-76
2022/07/19 09:17:03;;;;;;;6.53;1.83;;;;;;;;;;5132730;27;20035;-75
2022/07/19 09:19:34;;;;;;;4.28;1.75;;;;;;;;;;5131565;27;20416;-74
2022/07/19 09:22:03;;;;;;;7.88;1.70;;;;;;;;;;5131338;27;20592;-74
2022/07/19 09:24:32;;;;;;;3.50;1.73;;;;;;;;;;5132419;27;20038;-74
2022/07/19 09:27:03;;;;;;;2.60;1.50;;;;;;;;;;5133650;27;20031;-74
2022/07/19 09:29:30;;;;;;;5.80;2.10;;;;;;;;;;5131632;27;20043;-76
2022/07/19 09:32:06;;;;;;;4.80;1.60;;;;;;;;;;5132463;27;20027;-72
2022/07/19 09:34:37;;;;;;;4.40;1.58;;;;;;;;;;5115665;28;20035;-73
2022/07/19 09:37:14;;;;;;;2.90;1.70;;;;;;;;;;5133783;27;20042;-76
2022/07/19 09:39:44;;;;;;;10.07;1.90;;;;;;;;;;5133117;27;20035;-74
2022/07/19 09:42:11;;;;;;;4.05;1.63;;;;;;;;;;5133732;27;20499;-74
2022/07/19 09:44:36;;;;;;;8.57;1.90;;;;;;;;;;5132636;28;20425;-74
2022/07/19 09:47:02;;;;;;;3.83;2.03;;;;;;;;;;5132384;28;20110;-75
2022/07/19 09:49:28;;;;;;;3.05;1.88;;;;;;;;;;5131100;27;20035;-75
2022/07/19 09:51:54;;;;;;;7.30;1.80;;;;;;;;;;5134156;27;20395;-73
2022/07/19 09:54:24;;;;;;;5.65;1.55;;;;;;;;;;5131923;27;20166;-76
2022/07/19 09:56:51;;;;;;;3.60;1.63;;;;;;;;;;5132715;27;20069;-75
2022/07/19 09:59:17;;;;;;;2.97;1.70;;;;;;;;;;5134308;27;20031;-79
2022/07/19 10:01:43;;;;;;;4.30;1.50;;;;;;;;;;5116413;28;20031;-77
2022/07/19 10:04:14;;;;;;;3.63;1.73;;;;;;;;;;5133752;27;20026;-77
2022/07/19 10:06:41;;;;;;;3.72;1.63;;;;;;;;;;5134702;27;20027;-78
2022/07/19 10:09:08;;;;;;;4.72;1.98;;;;;;;;;;5136946;27;20045;-78
2022/07/19 10:11:34;;;;;;;5.60;2.08;;;;;;;;;;5140115;27;20031;-78
2022/07/19 10:14:00;;;;;;;4.85;1.70;;;;;;;;;;5139388;27;20063;-78
2022/07/19 10:16:34;;;;;;;4.40;1.48;;;;;;;;;;5141032;27;20495;-80
2022/07/19 10:19:09;;;;;;;2.65;1.55;;;;;;;;;;5135686;27;20038;-75
2022/07/19 10:21:36;;;;;;;7.00;1.88;;;;;;;;;;5158337;27;20042;-75
2022/07/19 10:24:02;;;;;;;3.85;1.42;;;;;;;;;;5155780;27;20079;-75
2022/07/19 10:26:39;;;;;;;2.35;1.30;;;;;;;;;;5158226;27;20157;-75
2022/07/19 10:29:17;;;;;;;5.90;2.03;;;;;;;;;;5159109;27;20337;-77
2022/07/19 10:32:03;;;;;;;6.55;1.70;;;;;;;;;;5156854;27;20034;-75
2022/07/19 10:34:28;;;;;;;2.33;1.80;;;;;;;;;;5149691;27;20039;-75
2022/07/19 10:36:55;;;;;;;2.83;1.50;;;;;;;;;;5153566;27;20027;-75
2022/07/19 10:39:35;;;;;;;4.80;1.52;;;;;;;;;;5158295;27;20034;-75
2022/07/19 10:42:10;;;;;;;2.28;1.25;;;;;;;;;;5139669;27;20061;-74
2022/07/19 10:45:04;;;;;;;3.00;1.40;;;;;;;;;;5156508;27;20031;-75
2022/07/19 10:47:39;;;;;;;1.98;1.30;;;;;;;;;;5155963;27;20035;-74
2022/07/19 10:50:06;;;;;;;6.60;1.65;;;;;;;;;;5136750;27;20035;-74
2022/07/19 10:52:33;;;;;;;6.65;1.27;;;;;;;;;;5136091;27;20039;-74
2022/07/19 10:55:18;;;;;;;3.00;1.55;;;;;;;;;;5136590;27;20046;-74
2022/07/19 10:58:06;;;;;;;2.90;1.42;;;;;;;;;;5137192;27;20031;-75
2022/07/19 11:00:42;;;;;;;5.55;1.60;;;;;;;;;;5124836;27;20039;-75
2022/07/19 11:03:22;;;;;;;13.77;1.90;;;;;;;;;;5136665;27;20065;-75
2022/07/19 11:05:53;;;;;;;3.00;1.55;;;;;;;;;;5118386;27;20073;-75
2022/07/19 11:08:32;;;;;;;3.97;1.60;;;;;;;;;;5136860;27;20031;-75
2022/07/19 11:11:11;;;;;;;2.72;1.50;;;;;;;;;;5118216;27;20043;-75
2022/07/19 11:13:39;;;;;;;3.85;1.73;;;;;;;;;;5118319;27;20114;-75
2022/07/19 11:16:05;;;;;;;5.05;1.38;;;;;;;;;;5135395;27;20503;-75
2022/07/19 11:18:31;;;;;;;2.33;1.60;;;;;;;;;;5136558;27;20031;-75
2022/07/19 11:20:58;;;;;;;5.13;1.40;;;;;;;;;;5134666;27;20046;-75
2022/07/19 11:23:27;;;;;;;7.70;1.52;;;;;;;;;;5135391;27;20404;-75
2022/07/19 11:26:05;;;;;;;4.60;1.60;;;;;;;;;;5136330;27;20031;-75
2022/07/19 11:28:31;;;;;;;3.10;1.50;;;;;;;;;;5136483;27;20038;-75
2022/07/19 11:30:56;;;;;;;5.38;1.98;;;;;;;;;;5136312;27;20031;-74
2022/07/19 11:33:22;;;;;;;5.25;1.42;;;;;;;;;;5136001;27;20046;-75
2022/07/19 11:35:59;;;;;;;4.13;1.92;;;;;;;;;;5117735;27;20065;-75
2022/07/19 11:38:36;;;;;;;6.68;1.40;;;;;;;;;;5136358;27;20027;-75
2022/07/19 11:41:01;;;;;;;6.40;1.60;;;;;;;;;;5135406;27;20047;-75
2022/07/19 11:43:27;;;;;;;5.32;1.77;;;;;;;;;;5134962;27;20049;-75
2022/07/19 11:45:52;;;;;;;2.80;1.38;;;;;;;;;;5136022;27;20505;-75
2022/07/19 11:48:44;;;;;;;6.18;1.50;;;;;;;;;;5134475;27;20079;-75
2022/07/19 11:51:10;;;;;;;3.50;1.52;;;;;;;;;;5130727;27;20046;-74
2022/07/19 11:53:37;;;;;;;4.72;1.90;;;;;;;;;;5117180;27;20027;-74
2022/07/19 11:56:04;;;;;;;4.55;1.90;;;;;;;;;;5134578;27;20134;-75
2022/07/19 11:58:32;;;;;;;5.20;1.55;;;;;;;;;;5132859;27;20046;-75
2022/07/19 12:01:05;;;;;;;2.92;1.30;;;;;;;;;;5117284;27;20045;-75
2022/07/19 12:03:31;;;;;;;4.90;1.52;;;;;;;;;;5135286;27;20122;-75
2022/07/19 12:06:02;;;;;;;8.50;1.77;;;;;;;;;;5135431;27;20043;-75
2022/07/19 12:08:33;;;;;;;6.70;1.55;;;;;;;;;;5135537;27;20041;-75
2022/07/19 12:10:59;;;;;;;2.83;1.30;;;;;;;;;;5117126;27;20059;-75
2022/07/19 12:13:33;;;;;;;6.20;1.40;;;;;;;;;;5135242;27;20030;-75
2022/07/19 12:16:06;;;;;;;4.55;1.70;;;;;;;;;;5135424;27;20492;-75
2022/07/19 12:18:46;;;;;;;6.20;1.48;;;;;;;;;;5133939;27;20080;-75
2022/07/19 12:21:35;;;;;;;9.75;1.73;;;;;;;;;;5135362;27;20023;-74
2022/07/19 12:24:20;;;;;;;2.60;1.35;;;;;;;;;;5133607;27;20425;-74
2022/07/19 12:26:51;;;;;;;3.88;1.70;;;;;;;;;;5133634;27;20414;-75
2022/07/19 12:29:42;;;;;;;5.50;1.60;;;;;;;;;;5133281;27;20485;-74
2022/07/19 12:32:10;;;;;;;8.05;2.00;;;;;;;;;;5123028;27;20463;-75
2022/07/19 12:34:50;;;;;;;4.57;1.55;;;;;;;;;;5132656;27;20091;-74
2022/07/19 12:37:35;;;;;;;2.67;1.42;;;;;;;;;;5134613;27;20031;-73
2022/07/19 12:40:06;;;;;;;4.65;1.50;;;;;;;;;;5123551;27;20055;-75
2022/07/19 12:42:45;;;;;;;3.92;1.40;;;;;;;;;;5114640;27;20031;-74
2022/07/19 12:45:14;;;;;;;11.30;1.90;;;;;;;;;;5112481;28;20122;-74
2022/07/19 12:47:41;;;;;;;3.90;1.77;;;;;;;;;;5112598;28;20118;-73
2022/07/19 12:50:07;;;;;;;7.68;1.65;;;;;;;;;;5111265;28;20154;-73
2022/07/19 12:52:33;;;;;;;7.10;1.52;;;;;;;;;;5112039;28;20040;-74
2022/07/19 12:54:58;;;;;;;4.53;1.55;;;;;;;;;;5111170;28;20035;-74
2022/07/19 12:57:24;;;;;;;6.75;1.58;;;;;;;;;;5094781;28;20073;-75
2022/07/19 12:59:49;;;;;;;5.78;1.40;;;;;;;;;;5112002;28;20090;-74
2022/07/19 13:02:17;;;;;;;3.63;1.50;;;;;;;;;;5112276;28;20413;-75
2022/07/19 13:04:43;;;;;;;3.28;1.38;;;;;;;;;;5099563;27;20035;-75
2022/07/19 13:07:11;;;;;;;5.05;1.50;;;;;;;;;;5132843;27;20031;-75
2022/07/19 13:09:37;;;;;;;4.20;1.33;;;;;;;;;;5115168;27;20027;-75
2022/07/19 13:12:05;;;;;;;3.63;1.23;;;;;;;;;;5133512;27;20039;-75
2022/07/19 13:14:31;;;;;;;8.02;1.60;;;;;;;;;;5115883;27;20039;-75
2022/07/19 13:16:57;;;;;;;8.95;1.55;;;;;;;;;;5132887;27;20031;-74
2022/07/19 13:19:23;;;;;;;4.80;1.50;;;;;;;;;;5133287;27;20035;-75
2022/07/19 13:21:48;;;;;;;5.88;1.63;;;;;;;;;;5132936;27;20042;-75
2022/07/19 13:24:14;;;;;;;9.70;1.85;;;;;;;;;;5115956;27;20035;-75
2022/07/19 13:26:40;;;;;;;7.80;2.47;;;;;;;;;;5132973;27;20042;-75
2022/07/19 13:29:05;;;;;;;1.85;1.30;;;;;;;;;;5115956;27;20035;-74
2022/07/19 13:31:32;;;;;;;3.65;1.60;;;;;;;;;;5132766;27;20031;-75
2022/07/19 13:33:58;;;;;;;8.57;1.80;;;;;;;;;;5116054;27;20039;-75
2022/07/19 13:36:23;;;;;;;3.72;1.38;;;;;;;;;;5115415;28;20039;-75
2022/07/19 13:38:49;;;;;;;3.22;1.42;;;;;;;;;;5132934;28;20035;-75
2022/07/19 13:41:16;;;;;;;4.65;2.03;;;;;;;;;;5132829;28;20078;-75
2022/07/19 13:43:43;;;;;;;5.18;1.88;;;;;;;;;;5136545;27;20082;-75
2022/07/19 13:46:08;;;;;;;5.63;1.33;;;;;;;;;;5138279;27;20019;-74
2022/07/19 13:48:33;;;;;;;4.20;1.70;;;;;;;;;;5138580;27;20031;-75
2022/07/19 13:50:59;;;;;;;10.20;2.10;;;;;;;;;;5138279;27;20038;-75
2022/07/19 13:53:24;;;;;;;5.38;1.42;;;;;;;;;;5138246;27;20027;-75
2022/07/19 13:55:49;;;;;;;7.05;2.35;;;;;;;;;;5136957;27;20484;-75
2022/07/19 13:58:15;;;;;;;6.25;1.80;;;;;;;;;;5119638;27;20034;-75
2022/07/19 14:00:46;;;;;;;3.75;1.42;;;;;;;;;;5136872;27;20046;-75
2022/07/19 14:03:13;;;;;;;6.57;1.60;;;;;;;;;;5137886;27;20035;-75
2022/07/19 14:05:38;;;;;;;5.78;1.42;;;;;;;;;;5145601;27;20117;-75
2022/07/19 14:08:04;;;;;;;5.22;1.60;;;;;;;;;;5139871;27;20118;-75
2022/07/19 14:10:30;;;;;;;7.47;1.70;;;;;;;;;;5158812;27;20406;-75
2022/07/19 14:12:55;;;;;;;7.53;1.35;;;;;;;;;;5158480;27;20045;-74
2022/07/19 14:15:20;;;;;;;4.22;1.60;;;;;;;;;;5158447;27;20444;-75
2022/07/19 14:17:46;;;;;;;10.32;1.70;;;;;;;;;;5158686;27;20031;-75
2022/07/19 14:20:12;;;;;;;2.53;1.23;;;;;;;;;;5158449;27;20035;-75
2022/07/19 14:22:37;;;;;;;6.43;1.60;;;;;;;;;;5157300;27;20067;-75
2022/07/19 14:25:03;;;;;;;5.50;1.80;;;;;;;;;;5158334;27;20075;-75
2022/07/19 14:27:28;;;;;;;5.28;1.55;;;;;;;;;;5157057;27;20045;-75
2022/07/19 14:29:53;;;;;;;6.03;1.50;;;;;;;;;;5158371;27;20034;-75
2022/07/19 14:32:19;;;;;;;7.18;1.48;;;;;;;;;;5157158;27;20035;-75
2022/07/19 14:34:44;;;;;;;3.33;1.30;;;;;;;;;;5155744;27;20399;-75
2022/07/19 14:37:10;;;;;;;2.80;1.25;;;;;;;;;;5118739;27;20442;-75
2022/07/19 14:39:36;;;;;;;9.18;1.88;;;;;;;;;;5118926;27;20035;-75
2022/07/19 14:42:03;;;;;;;8.60;1.33;;;;;;;;;;5137408;27;20027;-75
2022/07/19 14:44:28;;;;;;;3.22;1.48;;;;;;;;;;5135447;27;20019;-77
2022/07/19 14:46:54;;;;;;;6.30;1.63;;;;;;;;;;5119706;27;20027;-77